createdAt,value
2019-01-29T00:01:38.389Z,70.72
2019-01-29T00:04:11.507Z,70.85
2019-01-29T00:06:43.037Z,71.28
2019-01-29T00:09:15.900Z,71.69
2019-01-29T00:11:47.566Z,71.21
2019-01-29T00:14:19.228Z,71.47
2019-01-29T00:16:50.801Z,72.39
2019-01-29T00:19:22.343Z,71.92
2019-01-29T00:21:53.884Z,71.46
2019-01-29T00:24:25.293Z,71.02
2019-01-29T00:26:56.922Z,71.50
2019-01-29T00:29:28.538Z,71.16
2019-01-29T00:32:00.142Z,70.68
2019-01-29T00:34:31.794Z,70.83
2019-01-29T00:37:04.359Z,70.42
2019-01-29T00:39:36.089Z,70.60
2019-01-29T00:42:07.647Z,70.89
2019-01-29T00:44:40.291Z,70.70
2019-01-29T00:47:11.760Z,70.69
2019-01-29T00:49:43.244Z,70.87
2019-01-29T00:52:14.927Z,71.17
2019-01-29T00:54:48.686Z,70.79
2019-01-29T00:57:20.285Z,71.07
2019-01-29T00:59:52.485Z,72.26
2019-01-29T01:02:24.117Z,72.10
2019-01-29T01:04:55.690Z,71.80
2019-01-29T01:07:27.239Z,71.67
2019-01-29T01:09:59.021Z,71.31
2019-01-29T01:12:30.603Z,71.72
2019-01-29T01:15:03.887Z,71.88
2019-01-29T01:17:36.553Z,71.43
2019-01-29T01:20:10.389Z,71.54
2019-01-29T01:22:50.883Z,71.38
2019-01-29T01:25:19.709Z,70.88
2019-01-29T01:27:51.236Z,70.68
2019-01-29T01:30:22.982Z,70.41
2019-01-29T01:32:54.689Z,70.37
2019-01-29T01:35:26.414Z,70.31
2019-01-29T01:37:58.019Z,69.60
2019-01-29T01:40:29.837Z,69.09
2019-01-29T01:43:01.655Z,68.86
2019-01-29T01:45:33.287Z,68.87
2019-01-29T01:48:04.814Z,68.86
2019-01-29T01:50:36.435Z,68.12
2019-01-29T01:53:08.083Z,68.53
2019-01-29T01:55:39.656Z,68.17
2019-01-29T01:58:11.232Z,68.71
2019-01-29T02:00:42.924Z,68.56
2019-01-29T02:03:14.756Z,68.32
2019-01-29T02:05:46.285Z,68.15
2019-01-29T02:08:17.979Z,68.19
2019-01-29T02:10:49.534Z,68.46
2019-01-29T02:13:22.567Z,68.75
2019-01-29T02:15:54.102Z,68.34
2019-01-29T02:18:25.613Z,68.18
2019-01-29T02:20:57.268Z,67.91
2019-01-29T02:23:28.624Z,68.08
2019-01-29T02:26:00.326Z,67.83
2019-01-29T02:28:31.847Z,68.66
2019-01-29T02:31:04.411Z,68.86
2019-01-29T02:33:35.917Z,69.17
2019-01-29T02:36:07.457Z,68.55
2019-01-29T02:38:38.971Z,68.61
2019-01-29T02:41:10.462Z,68.56
2019-01-29T02:43:44.527Z,69.19
2019-01-29T02:46:16.257Z,69.41
2019-01-29T02:48:47.849Z,69.09
2019-01-29T02:51:20.783Z,68.68
2019-01-29T02:53:52.369Z,68.30
2019-01-29T02:56:23.956Z,68.11
2019-01-29T02:58:55.602Z,67.98
2019-01-29T03:01:27.241Z,68.40
2019-01-29T03:04:01.337Z,69.56
2019-01-29T03:06:33.122Z,69.48
2019-01-29T03:09:09.169Z,68.79
2019-01-29T03:11:40.453Z,68.55
2019-01-29T03:14:13.425Z,68.38
2019-01-29T03:16:45.009Z,69.27
2019-01-29T03:19:18.161Z,69.79
2019-01-29T03:21:49.839Z,70.01
2019-01-29T03:24:21.523Z,69.43
2019-01-29T03:26:53.244Z,69.09
2019-01-29T03:29:24.865Z,68.89
2019-01-29T03:31:56.411Z,69.03
2019-01-29T03:34:29.542Z,70.40
2019-01-29T03:37:04.273Z,70.82
2019-01-29T03:39:35.430Z,70.56
2019-01-29T03:42:07.105Z,69.84
2019-01-29T03:44:40.792Z,69.57
2019-01-29T03:47:12.456Z,70.03
2019-01-29T03:49:43.978Z,69.50
2019-01-29T03:52:15.787Z,69.60
2019-01-29T03:54:47.290Z,70.55
2019-01-29T03:57:19.029Z,70.28
2019-01-29T03:59:50.661Z,70.44
2019-01-29T04:02:22.216Z,70.52
2019-01-29T04:04:53.911Z,70.69
2019-01-29T04:07:25.745Z,70.48
2019-01-29T04:09:57.357Z,70.44
2019-01-29T04:12:29.039Z,69.86
2019-01-29T04:15:00.575Z,69.84
2019-01-29T04:17:32.220Z,69.53
2019-01-29T04:20:04.680Z,69.56
2019-01-29T04:22:36.365Z,69.13
2019-01-29T04:25:08.355Z,69.22
2019-01-29T04:27:39.962Z,69.78
2019-01-29T04:30:14.535Z,70.14
2019-01-29T04:32:46.099Z,69.77
2019-01-29T04:35:19.941Z,69.02
2019-01-29T04:37:51.624Z,69.24
2019-01-29T04:40:23.248Z,69.31
2019-01-29T04:42:54.735Z,69.58
2019-01-29T04:45:26.399Z,69.67
2019-01-29T04:47:59.241Z,69.31
2019-01-29T04:50:30.660Z,69.30
2019-01-29T04:53:02.295Z,69.28
2019-01-29T04:55:33.802Z,68.96
2019-01-29T04:58:06.846Z,68.81
2019-01-29T05:00:38.466Z,68.79
2019-01-29T05:03:11.145Z,68.61
2019-01-29T05:05:42.714Z,69.03
2019-01-29T05:08:15.635Z,69.19
2019-01-29T05:10:47.273Z,69.14
2019-01-29T05:13:18.982Z,69.18
2019-01-29T05:15:50.447Z,69.33
2019-01-29T05:18:22.250Z,69.19
2019-01-29T05:20:53.804Z,68.93
2019-01-29T05:23:25.379Z,69.30
2019-01-29T05:25:56.823Z,69.35
2019-01-29T05:28:28.534Z,69.46
2019-01-29T05:31:00.212Z,69.37
2019-01-29T05:33:31.864Z,69.80
2019-01-29T05:36:03.327Z,69.57
2019-01-29T05:38:34.978Z,69.53
2019-01-29T05:41:06.441Z,70.13
2019-01-29T05:43:38.035Z,70.54
2019-01-29T05:46:09.767Z,70.99
2019-01-29T05:48:41.206Z,70.37
2019-01-29T05:51:12.711Z,70.08
2019-01-29T05:53:44.322Z,69.87
2019-01-29T05:56:16.035Z,69.71
2019-01-29T05:58:48.765Z,69.95
2019-01-29T06:01:20.308Z,70.19
2019-01-29T06:03:51.942Z,69.91
2019-01-29T06:06:23.559Z,69.60
2019-01-29T06:08:56.377Z,69.46
2019-01-29T06:11:28.002Z,69.97
2019-01-29T06:13:59.554Z,69.97
2019-01-29T06:16:33.347Z,69.92
2019-01-29T06:19:05.061Z,69.75
2019-01-29T06:21:36.744Z,69.38
2019-01-29T06:24:08.554Z,69.46
2019-01-29T06:26:40.146Z,69.44
2019-01-29T06:29:12.836Z,69.76
2019-01-29T06:31:44.368Z,69.70
2019-01-29T06:34:16.061Z,69.63
2019-01-29T06:36:47.623Z,69.33
2019-01-29T06:39:23.213Z,69.57
2019-01-29T06:41:54.952Z,69.72
2019-01-29T06:44:26.534Z,68.88
2019-01-29T06:46:57.955Z,69.60
2019-01-29T06:49:29.660Z,69.39
2019-01-29T06:52:02.207Z,68.71
2019-01-29T06:54:34.445Z,68.30
2019-01-29T06:57:06.428Z,67.71
2019-01-29T06:59:37.963Z,67.69
2019-01-29T07:02:09.573Z,67.92
2019-01-29T07:04:41.150Z,68.28
2019-01-29T07:07:15.331Z,67.18
2019-01-29T07:09:47.052Z,67.18
2019-01-29T07:12:18.699Z,66.52
2019-01-29T07:14:50.208Z,66.63
2019-01-29T07:17:33.955Z,66.13
2019-01-29T07:20:08.578Z,66.04
2019-01-29T07:22:41.854Z,65.94
2019-01-29T07:25:13.787Z,66.35
2019-01-29T07:27:45.300Z,65.24
2019-01-29T07:30:17.103Z,65.24
2019-01-29T07:32:51.070Z,64.88
2019-01-29T07:35:22.691Z,64.77
2019-01-29T07:37:54.312Z,64.77
2019-01-29T07:40:26.120Z,64.30
2019-01-29T07:42:57.525Z,62.24
2019-01-29T07:45:31.847Z,59.39
2019-01-29T07:48:03.350Z,56.76
2019-01-29T07:50:34.973Z,55.87
2019-01-29T07:53:06.675Z,55.88
2019-01-29T07:55:38.196Z,57.07
2019-01-29T07:58:09.711Z,58.83
2019-01-29T08:00:42.282Z,58.21
2019-01-29T08:03:14.090Z,57.97
2019-01-29T08:05:45.597Z,57.36
2019-01-29T08:08:16.818Z,57.58
2019-01-29T08:10:47.965Z,57.22
2019-01-29T08:13:19.154Z,56.80
2019-01-29T08:15:50.363Z,56.36
2019-01-29T08:18:21.678Z,56.45
2019-01-29T08:20:53.025Z,55.10
2019-01-29T08:23:26.310Z,55.19
2019-01-29T08:25:57.672Z,55.18
2019-01-29T08:28:29.991Z,55.70
2019-01-29T08:31:01.142Z,55.77
2019-01-29T08:33:32.469Z,56.22
2019-01-29T08:36:03.865Z,56.71
2019-01-29T08:38:35.046Z,57.01
2019-01-29T08:41:06.355Z,58.04
2019-01-29T08:43:37.513Z,58.35
2019-01-29T08:46:09.019Z,59.75
2019-01-29T08:48:40.435Z,59.73
2019-01-29T08:51:11.654Z,60.01
2019-01-29T08:53:42.938Z,61.27
2019-01-29T08:56:14.556Z,60.81
2019-01-29T08:58:45.846Z,60.12
2019-01-29T09:01:17.336Z,60.83
2019-01-29T09:03:48.440Z,61.08
2019-01-29T09:06:19.828Z,61.16
2019-01-29T09:08:51.194Z,60.52
2019-01-29T09:11:22.483Z,60.13
2019-01-29T09:13:53.781Z,60.04
2019-01-29T09:16:24.896Z,60.12
2019-01-29T09:18:56.313Z,60.10
2019-01-29T09:21:27.686Z,60.10
2019-01-29T09:23:58.781Z,60.32
2019-01-29T09:26:30.014Z,60.25
2019-01-29T09:29:01.049Z,60.74
2019-01-29T09:31:32.475Z,60.45
2019-01-29T09:34:03.535Z,60.71
2019-01-29T09:36:37.122Z,60.38
2019-01-29T09:39:11.639Z,59.32
2019-01-29T09:41:42.923Z,59.13
2019-01-29T09:44:14.257Z,58.59
2019-01-29T09:46:45.425Z,58.01
2019-01-29T09:49:16.731Z,58.15
2019-01-29T09:51:48.055Z,57.80
2019-01-29T09:54:19.366Z,57.35
2019-01-29T09:56:50.669Z,56.41
2019-01-29T09:59:21.839Z,55.93
2019-01-29T10:01:53.113Z,55.99
2019-01-29T10:04:24.466Z,56.37
2019-01-29T10:06:55.876Z,56.39
2019-01-29T10:09:27.089Z,56.02
2019-01-29T10:11:58.124Z,55.70
2019-01-29T10:14:31.527Z,55.10
2019-01-29T10:17:02.783Z,54.48
2019-01-29T10:19:34.074Z,54.62
2019-01-29T10:22:05.592Z,53.85
2019-01-29T10:24:39.051Z,53.62
2019-01-29T10:27:10.562Z,52.61
2019-01-29T10:29:41.854Z,52.26
2019-01-29T10:32:13.196Z,51.90
2019-01-29T10:34:44.414Z,52.70
2019-01-29T10:37:15.617Z,50.49
2019-01-29T10:39:46.910Z,49.47
2019-01-29T10:42:18.444Z,48.49
2019-01-29T10:44:49.735Z,47.44
2019-01-29T10:47:22.384Z,47.07
2019-01-29T10:49:56.457Z,45.90
2019-01-29T10:52:27.853Z,45.77
2019-01-29T10:54:59.108Z,45.18
2019-01-29T10:57:31.595Z,43.85
2019-01-29T11:00:02.991Z,43.10
2019-01-29T11:02:34.643Z,41.78
2019-01-29T11:05:07.031Z,40.34
2019-01-29T11:07:40.981Z,38.41
2019-01-29T11:10:13.127Z,40.17
2019-01-29T11:12:44.425Z,39.10
2019-01-29T11:15:25.071Z,39.64
2019-01-29T11:17:56.369Z,40.78
2019-01-29T11:20:27.796Z,41.32
2019-01-29T11:22:59.066Z,41.80
2019-01-29T11:25:30.935Z,43.07
2019-01-29T11:28:02.216Z,43.45
2019-01-29T11:30:35.728Z,44.53
2019-01-29T11:33:07.702Z,45.61
2019-01-29T11:35:40.570Z,46.22
2019-01-29T11:38:11.949Z,47.09
2019-01-29T11:40:43.606Z,47.35
2019-01-29T11:43:15.010Z,48.69
2019-01-29T11:45:51.951Z,48.65
2019-01-29T11:48:25.004Z,49.08
2019-01-29T11:50:56.162Z,49.93
2019-01-29T11:53:27.345Z,50.20
2019-01-29T11:56:04.252Z,49.66
2019-01-29T11:58:32.020Z,50.30
2019-01-29T12:01:07.941Z,51.52
2019-01-29T12:03:39.315Z,52.12
2019-01-29T12:06:10.572Z,52.84
2019-01-29T12:08:42.030Z,53.59
2019-01-29T12:11:13.210Z,54.47
2019-01-29T12:13:44.447Z,55.46
2019-01-29T12:16:19.543Z,56.61
2019-01-29T12:18:48.873Z,56.75
2019-01-29T12:21:20.278Z,57.89
2019-01-29T12:23:51.611Z,58.97
2019-01-29T12:26:22.983Z,61.04
2019-01-29T12:28:54.330Z,61.46
2019-01-29T12:31:26.620Z,61.01
2019-01-29T12:33:57.932Z,62.04
2019-01-29T12:36:28.968Z,61.90
2019-01-29T12:39:00.154Z,63.01
2019-01-29T12:41:31.210Z,62.14
2019-01-29T12:44:02.530Z,62.40
2019-01-29T12:46:33.797Z,63.02
2019-01-29T12:49:05.464Z,63.07
2019-01-29T12:51:50.015Z,62.33
2019-01-29T12:54:21.404Z,62.51
2019-01-29T12:56:52.571Z,63.51
2019-01-29T12:59:23.823Z,62.09
2019-01-29T13:01:55.228Z,62.46
2019-01-29T13:04:26.402Z,61.82
2019-01-29T13:06:57.549Z,62.32
2019-01-29T13:09:28.814Z,61.92
2019-01-29T13:12:00.053Z,62.55
2019-01-29T13:14:32.303Z,63.11
2019-01-29T13:17:03.575Z,63.69
2019-01-29T13:19:36.429Z,64.92
2019-01-29T13:22:08.877Z,65.10
2019-01-29T13:24:41.367Z,65.00
2019-01-29T13:27:12.635Z,65.54
2019-01-29T13:29:43.914Z,66.62
2019-01-29T13:32:14.969Z,66.79
2019-01-29T13:34:46.217Z,66.11
2019-01-29T13:37:17.410Z,67.55
2019-01-29T13:39:48.731Z,67.43
2019-01-29T13:42:20.030Z,66.99
2019-01-29T13:44:51.304Z,67.49
2019-01-29T13:47:22.616Z,67.36
2019-01-29T13:49:53.952Z,67.52
2019-01-29T13:52:25.226Z,67.72
2019-01-29T13:54:56.580Z,67.93
2019-01-29T13:57:27.605Z,67.87
2019-01-29T13:59:58.965Z,68.31
2019-01-29T14:02:30.151Z,68.36
2019-01-29T14:05:01.391Z,69.19
2019-01-29T14:07:32.575Z,69.18
2019-01-29T14:10:03.886Z,69.51
2019-01-29T14:12:35.166Z,69.77
2019-01-29T14:15:07.679Z,69.70
2019-01-29T14:17:39.126Z,69.99
2019-01-29T14:20:13.879Z,69.46
2019-01-29T14:22:45.116Z,69.83
2019-01-29T14:25:16.439Z,69.96
2019-01-29T14:27:47.756Z,70.08
2019-01-29T14:30:20.091Z,69.45
2019-01-29T14:32:51.512Z,69.58
2019-01-29T14:35:23.101Z,69.64
2019-01-29T14:38:40.725Z,69.85
2019-01-29T14:41:12.073Z,70.07
2019-01-29T14:43:46.270Z,70.11
2019-01-29T14:46:19.428Z,70.46
2019-01-29T14:48:50.471Z,71.10
2019-01-29T14:51:23.473Z,71.08
2019-01-29T14:53:54.750Z,71.40
2019-01-29T14:56:26.141Z,71.25
2019-01-29T14:58:57.417Z,71.35
2019-01-29T15:01:29.153Z,71.61
2019-01-29T15:04:00.343Z,71.68
2019-01-29T15:06:32.497Z,71.83
2019-01-29T15:09:05.685Z,72.73
2019-01-29T15:11:36.941Z,72.46
2019-01-29T15:14:08.354Z,71.66
2019-01-29T15:16:58.561Z,71.88
2019-01-29T15:19:31.128Z,72.99
2019-01-29T15:22:02.390Z,72.91
2019-01-29T15:24:33.684Z,72.66
2019-01-29T15:27:05.998Z,72.54
2019-01-29T15:29:37.331Z,72.30
2019-01-29T15:32:08.564Z,73.12
2019-01-29T15:34:39.965Z,73.72
2019-01-29T15:37:11.285Z,73.72
2019-01-29T15:39:42.625Z,73.03
2019-01-29T15:42:14.014Z,72.68
2019-01-29T15:44:45.359Z,72.66
2019-01-29T15:47:16.553Z,73.12
2019-01-29T15:49:47.823Z,73.12
2019-01-29T15:52:20.162Z,72.81
2019-01-29T15:54:51.285Z,72.70
2019-01-29T15:57:22.513Z,72.70
2019-01-29T15:59:53.700Z,72.53
2019-01-29T16:02:24.848Z,72.61
2019-01-29T16:04:56.186Z,73.57
2019-01-29T16:07:27.497Z,73.57
2019-01-29T16:09:58.696Z,73.66
2019-01-29T16:12:30.799Z,73.84
2019-01-29T16:15:03.545Z,73.84
2019-01-29T16:17:34.855Z,73.88
2019-01-29T16:20:07.184Z,73.62
2019-01-29T16:22:38.654Z,73.67
2019-01-29T16:25:11.235Z,73.85
2019-01-29T16:27:42.650Z,73.73
2019-01-29T16:30:23.227Z,74.11
2019-01-29T16:32:54.592Z,73.95
2019-01-29T16:35:28.441Z,74.00
2019-01-29T16:38:00.131Z,74.07
2019-01-29T16:40:31.830Z,73.97
2019-01-29T16:43:03.111Z,74.32
2019-01-29T16:45:34.499Z,74.33
2019-01-29T16:48:07.377Z,74.33
2019-01-29T16:50:38.673Z,74.83
2019-01-29T16:53:10.351Z,74.13
2019-01-29T16:55:41.574Z,74.23
2019-01-29T16:58:12.876Z,73.79
2019-01-29T17:00:44.566Z,74.20
2019-01-29T17:03:15.921Z,73.58
2019-01-29T17:05:47.249Z,74.04
2019-01-29T17:08:18.767Z,73.96
2019-01-29T17:10:50.047Z,74.06
2019-01-29T17:13:23.887Z,74.29
2019-01-29T17:15:56.898Z,74.58
2019-01-29T17:18:28.187Z,73.86
2019-01-29T17:20:59.583Z,73.89
2019-01-29T17:23:30.986Z,74.89
2019-01-29T17:26:02.207Z,74.89
2019-01-29T17:28:33.561Z,75.38
2019-01-29T17:31:06.368Z,75.24
2019-01-29T17:33:37.711Z,75.24
2019-01-29T17:36:08.824Z,75.60
2019-01-29T17:38:44.727Z,75.92
2019-01-29T17:41:13.095Z,75.92
2019-01-29T17:43:44.289Z,75.99
2019-01-29T17:46:15.720Z,75.99
2019-01-29T17:48:46.997Z,75.28
2019-01-29T17:51:19.743Z,75.47
2019-01-29T17:53:50.973Z,75.47
2019-01-29T17:56:22.400Z,75.28
2019-01-29T17:58:53.759Z,75.71
2019-01-29T18:01:24.930Z,75.65
2019-01-29T18:03:56.088Z,75.65
2019-01-29T18:06:27.444Z,75.84
2019-01-29T18:08:58.774Z,75.73
2019-01-29T18:11:30.243Z,75.73
2019-01-29T18:14:01.414Z,75.67
2019-01-29T18:16:33.687Z,75.29
2019-01-29T18:19:05.357Z,74.40
2019-01-29T18:21:36.804Z,74.40
2019-01-29T18:24:08.181Z,74.45
2019-01-29T18:26:39.617Z,74.10
2019-01-29T18:29:10.887Z,74.10
2019-01-29T18:31:42.311Z,75.23
2019-01-29T18:34:13.416Z,75.23
2019-01-29T18:36:44.727Z,74.88
2019-01-29T18:39:16.052Z,76.10
2019-01-29T18:41:49.041Z,76.62
2019-01-29T18:44:20.194Z,76.29
2019-01-29T18:46:51.513Z,76.23
2019-01-29T18:49:22.533Z,76.23
2019-01-29T18:51:53.863Z,76.66
2019-01-29T18:54:25.068Z,76.92
2019-01-29T18:56:56.251Z,76.71
2019-01-29T18:59:27.373Z,77.33
2019-01-29T19:01:58.505Z,78.08
2019-01-29T19:04:29.866Z,77.58
2019-01-29T19:07:01.024Z,77.52
2019-01-29T19:09:32.289Z,77.27
2019-01-29T19:12:03.523Z,77.05
2019-01-29T19:14:34.749Z,76.82
2019-01-29T19:17:06.331Z,76.40
2019-01-29T19:19:37.606Z,76.15
2019-01-29T19:22:09.968Z,76.77
2019-01-29T19:24:41.346Z,76.67
2019-01-29T19:27:12.554Z,77.13
2019-01-29T19:29:44.781Z,77.47
2019-01-29T19:32:18.086Z,77.21
2019-01-29T19:34:49.526Z,77.36
2019-01-29T19:37:20.770Z,78.06
2019-01-29T19:39:52.170Z,78.06
2019-01-29T19:42:27.614Z,77.41
2019-01-29T19:44:56.552Z,77.09
2019-01-29T19:47:27.577Z,77.09
2019-01-29T19:49:58.867Z,76.98
2019-01-29T19:52:34.698Z,76.59
2019-01-29T19:55:07.523Z,77.32
2019-01-29T19:57:38.928Z,76.89
2019-01-29T20:00:15.058Z,76.41
2019-01-29T20:02:47.192Z,76.41
2019-01-29T20:05:18.754Z,75.97
2019-01-29T20:07:50.038Z,76.37
2019-01-29T20:10:21.733Z,76.59
2019-01-29T20:12:54.221Z,76.51
2019-01-29T20:17:30.180Z,76.90
2019-01-29T20:19:59.786Z,76.52
2019-01-29T20:22:29.557Z,76.09
2019-01-29T20:24:59.279Z,75.63
2019-01-29T20:27:29.038Z,76.22
2019-01-29T20:29:58.650Z,76.11
2019-01-29T20:32:28.480Z,75.42
2019-01-29T20:34:58.130Z,75.73
2019-01-29T20:37:27.626Z,76.00
2019-01-29T20:39:57.225Z,77.02
2019-01-29T20:42:26.951Z,77.00
2019-01-29T20:44:56.524Z,77.69
2019-01-29T20:47:26.342Z,77.87
2019-01-29T20:49:56.128Z,78.02
2019-01-29T20:52:25.890Z,77.87
2019-01-29T20:54:55.498Z,77.51
2019-01-29T20:57:25.244Z,76.95
2019-01-29T20:59:54.755Z,76.94
2019-01-29T21:02:24.468Z,76.64
2019-01-29T21:04:54.083Z,76.27
2019-01-29T21:07:23.901Z,76.21
2019-01-29T21:09:53.465Z,76.16
2019-01-29T21:12:23.119Z,75.86
2019-01-29T21:14:52.785Z,76.19
2019-01-29T21:17:22.453Z,75.68
2019-01-29T21:19:52.081Z,75.94
2019-01-29T21:22:21.723Z,76.67
2019-01-29T21:24:51.373Z,76.37
2019-01-29T21:27:21.214Z,75.67
2019-01-29T21:29:50.909Z,75.39
2019-01-29T21:32:20.393Z,75.87
2019-01-29T21:34:51.814Z,75.46
2019-01-29T21:37:21.487Z,75.46
2019-01-29T21:39:52.246Z,74.90
2019-01-29T21:42:21.875Z,74.80
2019-01-29T21:44:51.503Z,74.51
2019-01-29T21:47:21.172Z,75.13
2019-01-29T21:49:50.794Z,75.64
2019-01-29T21:52:20.466Z,75.48
2019-01-29T21:54:50.192Z,75.73
2019-01-29T21:57:19.849Z,75.71
2019-01-29T21:59:49.587Z,74.94
2019-01-29T22:02:19.386Z,75.38
2019-01-29T22:04:49.078Z,75.54
2019-01-29T22:07:19.623Z,74.68
2019-01-29T22:09:50.634Z,74.44
2019-01-29T22:12:20.427Z,74.61
2019-01-29T22:14:49.951Z,75.13
2019-01-29T22:17:19.578Z,74.85
2019-01-29T22:19:49.309Z,74.63
2019-01-29T22:22:18.969Z,75.29
2019-01-29T22:24:48.756Z,74.77
2019-01-29T22:27:18.489Z,74.55
2019-01-29T22:29:48.111Z,75.00
2019-01-29T22:32:17.694Z,74.77
2019-01-29T22:34:47.501Z,74.84
2019-01-29T22:37:17.243Z,74.87
2019-01-29T22:39:47.086Z,74.62
2019-01-29T22:42:16.801Z,74.73
2019-01-29T22:44:48.276Z,75.29
2019-01-29T22:47:17.927Z,75.29
2019-01-29T22:49:47.523Z,74.81
2019-01-29T22:52:17.184Z,74.66
2019-01-29T22:54:46.784Z,74.63
2019-01-29T22:57:16.437Z,74.78
2019-01-29T22:59:46.066Z,74.24
2019-01-29T23:02:15.865Z,74.76
2019-01-29T23:04:47.299Z,75.27
2019-01-29T23:07:37.052Z,74.69
2019-01-29T23:10:12.245Z,74.52
2019-01-29T23:12:42.005Z,74.82
2019-01-29T23:15:13.655Z,74.81
2019-01-29T23:17:43.523Z,74.62
2019-01-29T23:20:14.119Z,74.49
2019-01-29T23:22:43.584Z,74.62
2019-01-29T23:25:13.588Z,75.21
2019-01-29T23:27:43.511Z,75.12
2019-01-29T23:30:16.373Z,75.49
2019-01-29T23:32:46.069Z,75.00
2019-01-29T23:35:16.258Z,75.23
2019-01-29T23:37:45.821Z,75.37
2019-01-29T23:40:15.865Z,75.46
2019-01-29T23:42:45.818Z,76.52
2019-01-29T23:45:16.025Z,76.52
2019-01-29T23:47:45.637Z,75.80
2019-01-29T23:50:15.601Z,75.54
2019-01-29T23:52:45.218Z,76.06
2019-01-29T23:55:15.021Z,75.60
2019-01-29T23:57:44.796Z,75.10
